createdAt,value
2019-01-04T00:03:44.101Z,97840.45
2019-01-04T00:06:34.199Z,97838.57
2019-01-04T00:09:16.626Z,97822.80
2019-01-04T00:15:08.102Z,97839.11
2019-01-04T00:17:58.168Z,97842.08
2019-01-04T00:20:40.916Z,97835.36
2019-01-04T00:26:26.117Z,97833.73
2019-01-04T00:29:15.915Z,97815.03
2019-01-04T00:32:05.938Z,97838.03
2019-01-04T00:34:55.986Z,97844.87
2019-01-04T00:37:45.770Z,97841.98
2019-01-04T00:40:35.560Z,97845.48
2019-01-04T00:43:19.105Z,97841.17
2019-01-04T00:46:01.844Z,97842.61
2019-01-04T00:48:51.656Z,97840.24
2019-01-04T00:51:41.566Z,97827.30
2019-01-04T01:07:26.387Z,97854.10
2019-01-04T01:17:41.998Z,97835.27
2019-01-04T01:20:50.600Z,97865.37
2019-01-04T01:23:48.826Z,97858.70
2019-01-04T01:29:51.110Z,97859.63
2019-01-04T01:35:58.012Z,97852.61
2019-01-04T01:42:07.154Z,97854.63
2019-01-04T01:48:06.238Z,97852.06
2019-01-04T02:02:43.765Z,97846.88
2019-01-04T02:08:17.566Z,97823.31
2019-01-04T02:37:12.474Z,97807.39
2019-01-04T02:39:56.485Z,97782.48
2019-01-04T02:42:40.887Z,97798.20
2019-01-04T02:54:22.041Z,97781.29
2019-01-04T02:57:11.795Z,97777.81
2019-01-04T02:59:53.803Z,97774.86
2019-01-04T03:02:43.581Z,97756.67
2019-01-04T03:08:31.339Z,97767.67
2019-01-04T03:11:21.121Z,97771.41
2019-01-04T03:14:03.173Z,97772.64
2019-01-04T03:16:52.930Z,97771.91
2019-01-04T03:19:36.026Z,97772.86
2019-01-04T03:22:25.801Z,97780.86
2019-01-04T03:25:08.419Z,97768.81
2019-01-04T03:27:58.175Z,97776.28
2019-01-04T03:30:40.317Z,97771.74
2019-01-04T03:33:30.053Z,97748.02
2019-01-04T03:36:12.287Z,97762.22
2019-01-04T03:39:02.071Z,97749.42
2019-01-04T03:41:44.387Z,97764.95
2019-01-04T03:44:34.160Z,97739.32
2019-01-04T03:47:18.118Z,97763.08
2019-01-04T03:50:08.032Z,97766.05
2019-01-04T03:52:50.723Z,97766.30
2019-01-04T03:58:32.762Z,97762.56
2019-01-04T04:01:22.590Z,97764.44
2019-01-04T04:04:12.459Z,97768.69
2019-01-04T04:07:02.421Z,97769.50
2019-01-04T04:09:52.281Z,97754.00
2019-01-04T04:12:42.225Z,97768.97
2019-01-04T04:15:32.091Z,97768.70
2019-01-04T04:21:18.849Z,97770.30
2019-01-04T04:24:08.945Z,97778.60
2019-01-04T04:26:51.518Z,97777.52
2019-01-04T04:29:41.336Z,97782.33
2019-01-04T04:32:23.463Z,97787.92
2019-01-04T04:35:13.522Z,97785.53
2019-01-04T04:37:55.827Z,97789.54
2019-01-04T04:40:45.903Z,97785.00
2019-01-04T04:43:30.103Z,97775.11
2019-01-04T04:46:19.936Z,97762.03
2019-01-04T04:49:04.101Z,97783.66
2019-01-04T04:51:54.287Z,97786.86
2019-01-04T04:54:44.066Z,97786.88
2019-01-04T04:57:27.221Z,97768.97
2019-01-04T05:00:17.107Z,97786.86
2019-01-04T05:03:06.991Z,97787.15
2019-01-04T05:05:49.357Z,97793.80
2019-01-04T05:08:34.578Z,97792.48
2019-01-04T05:14:19.994Z,97796.47
2019-01-04T05:16:50.728Z,97803.95
2019-01-04T05:19:40.508Z,97798.60
2019-01-04T05:22:22.834Z,97803.14
2019-01-04T05:25:13.782Z,97795.69
2019-01-04T05:28:03.864Z,97798.08
2019-01-04T05:30:54.416Z,97793.02
2019-01-04T05:33:44.201Z,97797.02
2019-01-04T05:36:34.128Z,97793.54
2019-01-04T05:39:16.564Z,97793.02
2019-01-04T05:42:06.406Z,97790.06
2019-01-04T05:44:56.307Z,97792.77
2019-01-04T05:47:59.988Z,97795.42
2019-01-04T05:50:34.558Z,97802.08
2019-01-04T05:53:17.248Z,97807.69
2019-01-04T05:56:07.084Z,97799.97
2019-01-04T05:58:57.734Z,97809.58
2019-01-04T06:01:47.868Z,97806.63
2019-01-04T06:04:30.282Z,97816.80
2019-01-04T06:07:20.414Z,97810.11
2019-01-04T06:10:03.308Z,97811.42
2019-01-04T06:12:53.414Z,97807.67
2019-01-04T06:15:35.758Z,97809.03
2019-01-04T06:18:25.592Z,97811.46
2019-01-04T06:21:08.349Z,97813.56
2019-01-04T06:23:58.133Z,97810.91
2019-01-04T06:26:40.724Z,97815.45
2019-01-04T06:29:31.030Z,97807.43
2019-01-04T06:32:13.650Z,97813.58
2019-01-04T06:35:03.548Z,97816.25
2019-01-04T06:37:46.169Z,97819.48
2019-01-04T06:40:36.156Z,97817.06
2019-01-04T06:43:18.512Z,97813.57
2019-01-04T06:46:08.391Z,97805.02
2019-01-04T06:48:51.392Z,97795.66
2019-01-04T06:51:41.250Z,97801.81
2019-01-04T06:54:43.168Z,97801.27
2019-01-04T06:57:33.342Z,97811.69
2019-01-04T07:00:15.673Z,97810.90
2019-01-04T07:03:05.437Z,97801.02
2019-01-04T07:05:50.425Z,97815.14
2019-01-04T07:08:40.470Z,97817.83
2019-01-04T07:11:22.920Z,97823.17
2019-01-04T07:14:13.101Z,97822.93
2019-01-04T07:17:03.128Z,97838.18
2019-01-04T07:22:44.937Z,97855.48
2019-01-04T07:25:34.769Z,97854.61
2019-01-04T07:28:17.073Z,97867.39
2019-01-04T07:31:06.968Z,97850.75
2019-01-04T07:33:50.262Z,97869.02
2019-01-04T07:36:40.144Z,97857.47
2019-01-04T07:39:22.873Z,97864.12
2019-01-04T07:42:12.630Z,97854.73
2019-01-04T07:44:57.501Z,97843.85
2019-01-04T07:47:47.483Z,97842.34
2019-01-04T07:50:30.095Z,97845.34
2019-01-04T07:53:19.857Z,97845.65
2019-01-04T07:56:02.743Z,97834.96
2019-01-04T07:58:52.580Z,97832.57
2019-01-04T08:01:34.604Z,97826.97
2019-01-04T08:04:24.365Z,97851.03
2019-01-04T08:07:07.266Z,97843.00
2019-01-04T08:10:10.735Z,97861.45
2019-01-04T08:12:41.115Z,97859.59
2019-01-04T08:15:30.873Z,97849.42
2019-01-04T08:18:13.148Z,97867.34
2019-01-04T08:21:02.939Z,97863.54
2019-01-04T08:23:45.753Z,97870.50
2019-01-04T08:26:35.521Z,97873.97
2019-01-04T08:29:19.349Z,97871.83
2019-01-04T08:32:03.810Z,97869.16
2019-01-04T08:34:54.692Z,97879.56
2019-01-04T08:37:44.473Z,97875.30
2019-01-04T08:40:34.325Z,97876.36
2019-01-04T08:43:43.251Z,97872.59
2019-01-04T08:46:32.993Z,97877.65
2019-01-04T08:49:22.773Z,97870.38
2019-01-04T08:52:12.521Z,97871.97
2019-01-04T08:54:54.710Z,97860.59
2019-01-04T08:57:41.011Z,97883.36
2019-01-04T09:00:23.513Z,97879.34
2019-01-04T09:03:13.509Z,97879.61
2019-01-04T09:06:03.265Z,97869.20
2019-01-04T09:08:53.047Z,97870.28
2019-01-04T09:11:42.799Z,97868.10
2019-01-04T09:14:25.273Z,97869.48
2019-01-04T09:17:15.065Z,97870.27
2019-01-04T09:19:58.133Z,97869.70
2019-01-04T09:22:47.914Z,97868.40
2019-01-04T09:25:30.807Z,97867.59
2019-01-04T09:31:26.552Z,97866.78
2019-01-04T09:34:12.687Z,97869.17
2019-01-04T09:36:54.737Z,97864.39
2019-01-04T09:39:44.535Z,97852.64
2019-01-04T09:42:34.289Z,97836.58
2019-01-04T09:45:23.583Z,97845.15
2019-01-04T09:48:06.450Z,97860.38
2019-01-04T09:50:56.281Z,97858.78
2019-01-04T09:53:46.078Z,97851.02
2019-01-04T09:56:35.843Z,97839.53
2019-01-04T09:59:27.489Z,97866.53
2019-01-04T10:02:09.973Z,97866.52
2019-01-04T10:04:59.775Z,97859.83
2019-01-04T10:07:43.979Z,97857.66
2019-01-04T10:10:33.781Z,97854.19
2019-01-04T10:13:15.956Z,97855.23
2019-01-04T10:16:06.086Z,97849.31
2019-01-04T10:18:56.755Z,97846.39
2019-01-04T10:21:47.392Z,97845.27
2019-01-04T10:24:31.588Z,97837.51
2019-01-04T10:27:21.360Z,97834.83
2019-01-04T10:30:03.648Z,97832.09
2019-01-04T10:32:53.406Z,97823.51
2019-01-04T10:35:35.383Z,97821.30
2019-01-04T10:38:25.123Z,97821.83
2019-01-04T10:41:07.135Z,97819.08
2019-01-04T10:43:56.875Z,97813.67
2019-01-04T10:46:40.651Z,97810.30
2019-01-04T10:49:30.452Z,97806.61
2019-01-04T10:52:20.218Z,97810.33
2019-01-04T10:55:03.010Z,97800.35
2019-01-04T10:57:52.822Z,97796.30
2019-01-04T11:00:42.582Z,97793.03
2019-01-04T11:03:32.395Z,97768.77
2019-01-04T11:06:22.240Z,97762.20
2019-01-04T11:09:12.034Z,97759.33
2019-01-04T11:15:09.768Z,97751.05
2019-01-04T11:17:52.370Z,97749.22
2019-01-04T11:21:02.320Z,97757.56
2019-01-04T11:24:30.252Z,97728.62
2019-01-04T11:27:26.308Z,97746.13
2019-01-04T11:30:54.384Z,97746.42
2019-01-04T11:33:55.151Z,97743.03
2019-01-04T11:40:14.853Z,97719.06
2019-01-04T11:43:43.490Z,97739.31
2019-01-04T11:46:31.431Z,97738.88
2019-01-04T11:49:34.310Z,97739.38
2019-01-04T11:52:20.008Z,97749.54
2019-01-04T11:55:10.090Z,97746.44
2019-01-04T11:57:52.630Z,97736.34
2019-01-04T12:00:42.874Z,97742.22
2019-01-04T12:03:31.165Z,97736.27
2019-01-04T12:06:20.914Z,97704.16
2019-01-04T12:12:01.845Z,97722.59
2019-01-04T12:14:51.928Z,97719.41
2019-01-04T12:17:41.748Z,97711.52
2019-01-04T12:20:31.864Z,97698.93
2019-01-04T12:23:18.858Z,97706.22
2019-01-04T12:26:09.382Z,97703.86
2019-01-04T12:28:56.139Z,97684.79
2019-01-04T12:31:45.957Z,97696.37
2019-01-04T12:34:28.188Z,97689.73
2019-01-04T12:37:18.346Z,97660.80
2019-01-04T12:40:00.435Z,97666.51
2019-01-04T12:42:50.463Z,97666.27
2019-01-04T12:45:33.092Z,97676.49
2019-01-04T12:48:22.859Z,97673.91
2019-01-04T12:51:05.214Z,97685.25
2019-01-04T12:54:14.077Z,97688.82
2019-01-04T12:56:58.095Z,97665.36
2019-01-04T12:59:47.872Z,97675.92
2019-01-04T13:02:37.646Z,97668.81
2019-01-04T13:08:13.525Z,97674.44
2019-01-04T13:11:03.849Z,97672.68
2019-01-04T13:16:59.161Z,97678.53
2019-01-04T13:19:41.453Z,97669.81
2019-01-04T13:22:31.700Z,97667.58
2019-01-04T13:25:21.547Z,97668.88
2019-01-04T13:28:11.297Z,97672.80
2019-01-04T13:31:20.103Z,97679.56
2019-01-04T13:34:09.849Z,97686.24
2019-01-04T13:36:54.480Z,97680.85
2019-01-04T13:39:44.633Z,97672.52
2019-01-04T13:45:30.305Z,97683.59
2019-01-04T13:48:20.425Z,97688.02
2019-01-04T13:51:02.899Z,97688.66
2019-01-04T13:53:52.805Z,97691.75
2019-01-04T13:56:39.722Z,97698.56
2019-01-04T13:59:29.849Z,97691.42
2019-01-04T14:02:15.955Z,97687.98
2019-01-04T14:05:05.949Z,97690.00
2019-01-04T14:07:49.573Z,97694.44
2019-01-04T14:10:39.728Z,97691.08
2019-01-04T14:13:29.530Z,97685.16
2019-01-04T14:16:20.355Z,97681.53
2019-01-04T14:19:08.395Z,97690.61
2019-01-04T14:24:57.645Z,97695.03
2019-01-04T14:27:42.082Z,97690.20
2019-01-04T14:30:24.239Z,97688.98
2019-01-04T14:33:33.226Z,97687.96
2019-01-04T14:36:23.042Z,97682.82
2019-01-04T14:39:13.257Z,97678.20
2019-01-04T14:42:03.400Z,97673.67
2019-01-04T14:44:45.581Z,97672.52
2019-01-04T14:47:35.349Z,97672.30
2019-01-04T14:50:21.732Z,97660.82
2019-01-04T14:53:11.772Z,97635.86
2019-01-04T14:55:54.466Z,97652.44
2019-01-04T14:58:44.228Z,97645.57
2019-01-04T15:01:30.650Z,97640.52
2019-01-04T15:04:20.439Z,97627.97
2019-01-04T15:07:04.069Z,97636.09
2019-01-04T15:09:53.869Z,97630.62
2019-01-04T15:12:36.949Z,97634.38
2019-01-04T15:15:07.951Z,97636.59
2019-01-04T15:17:57.700Z,97639.07
2019-01-04T15:20:39.913Z,97634.61
2019-01-04T15:23:29.786Z,97632.36
2019-01-04T15:26:19.681Z,97621.53
2019-01-04T15:29:09.834Z,97630.44
2019-01-04T15:31:59.960Z,97634.68
2019-01-04T15:34:49.821Z,97625.77
2019-01-04T15:37:39.708Z,97650.35
2019-01-04T15:40:29.607Z,97655.15
2019-01-04T15:43:19.812Z,97652.37
2019-01-04T15:46:28.278Z,97659.38
2019-01-04T15:52:13.575Z,97643.23
2019-01-04T15:55:03.399Z,97634.83
2019-01-04T15:57:46.112Z,97637.75
2019-01-04T16:00:56.766Z,97629.67
2019-01-04T16:03:39.195Z,97628.59
2019-01-04T16:06:28.954Z,97625.66
2019-01-04T16:09:11.857Z,97617.19
2019-01-04T16:12:02.460Z,97609.75
2019-01-04T16:14:45.413Z,97602.62
2019-01-04T16:17:35.475Z,97606.89
2019-01-04T16:20:19.734Z,97607.83
2019-01-04T16:23:09.502Z,97594.73
2019-01-04T16:25:51.627Z,97589.42
2019-01-04T16:28:41.398Z,97594.65
2019-01-04T16:31:24.537Z,97600.52
2019-01-04T16:34:14.336Z,97589.94
2019-01-04T16:36:58.100Z,97583.00
2019-01-04T16:39:48.251Z,97570.95
2019-01-04T16:42:32.360Z,97566.21
2019-01-04T16:45:22.126Z,97565.41
2019-01-04T16:48:04.152Z,97553.77
2019-01-04T16:50:53.964Z,97579.28
2019-01-04T16:53:36.688Z,97571.89
2019-01-04T16:56:26.767Z,97591.66
2019-01-04T16:59:09.466Z,97589.77
2019-01-04T17:01:59.279Z,97574.64
2019-01-04T17:04:45.664Z,97585.66
2019-01-04T17:07:35.795Z,97577.81
2019-01-04T17:10:20.133Z,97580.06
2019-01-04T17:13:09.987Z,97559.50
2019-01-04T17:15:53.528Z,97566.67
2019-01-04T17:19:03.959Z,97571.05
2019-01-04T17:24:42.810Z,97607.98
2019-01-04T17:27:26.745Z,97624.81
2019-01-04T17:36:16.626Z,97644.14
2019-01-04T17:39:10.641Z,97644.38
2019-01-04T17:41:54.366Z,97644.71
2019-01-04T17:44:44.564Z,97646.86
2019-01-04T17:47:27.213Z,97650.52
2019-01-04T17:50:17.379Z,97634.25
2019-01-04T17:53:03.645Z,97647.06
2019-01-04T17:55:53.488Z,97626.62
2019-01-04T18:01:28.078Z,97649.22
2019-01-04T18:04:37.141Z,97641.92
2019-01-04T18:07:19.864Z,97627.64
2019-01-04T18:10:10.036Z,97622.08
2019-01-04T18:12:52.787Z,97627.07
2019-01-04T18:15:43.061Z,97633.75
2019-01-04T18:21:30.085Z,97640.23
2019-01-04T18:24:19.924Z,97653.90
2019-01-04T18:27:02.804Z,97656.58
2019-01-04T18:29:53.069Z,97662.98
2019-01-04T18:32:37.171Z,97657.08
2019-01-04T18:35:27.321Z,97658.95
2019-01-04T18:38:10.845Z,97664.41
2019-01-04T18:41:00.948Z,97668.02
2019-01-04T18:43:45.440Z,97686.17
2019-01-04T18:46:35.670Z,97685.86
2019-01-04T18:49:18.359Z,97676.58
2019-01-04T18:52:08.491Z,97705.25
2019-01-04T18:54:52.412Z,97705.02
2019-01-04T18:57:42.556Z,97700.75
2019-01-04T19:00:25.375Z,97698.14
2019-01-04T19:03:15.530Z,97692.50
2019-01-04T19:05:58.198Z,97690.82
2019-01-04T19:08:48.226Z,97673.44
2019-01-04T19:11:35.034Z,97686.05
2019-01-04T19:14:24.873Z,97679.34
2019-01-04T19:17:07.874Z,97681.56
2019-01-04T19:19:58.060Z,97687.40
2019-01-04T19:22:40.838Z,97685.78
2019-01-04T19:25:30.638Z,97671.97
2019-01-04T19:28:14.431Z,97675.12
2019-01-04T19:31:04.508Z,97694.89
2019-01-04T19:33:46.836Z,97695.92
2019-01-04T19:36:36.632Z,97699.03
2019-01-04T19:39:19.458Z,97692.70
2019-01-04T19:42:09.373Z,97689.39
2019-01-04T19:44:59.090Z,97683.78
2019-01-04T19:47:49.144Z,97667.81
2019-01-04T19:53:43.498Z,97659.48
2019-01-04T19:56:26.604Z,97657.16
2019-01-04T19:59:16.790Z,97680.45
2019-01-04T20:04:53.648Z,97672.94
2019-01-04T20:11:54.206Z,97648.88
2019-01-04T20:15:15.711Z,97670.15
2019-01-04T20:18:26.574Z,97669.80
2019-01-04T20:21:32.162Z,97660.37
2019-01-04T20:34:14.508Z,97679.04
2019-01-04T20:37:20.256Z,97679.38
2019-01-04T20:40:27.676Z,97683.20
2019-01-04T20:43:30.032Z,97682.39
2019-01-04T20:46:32.182Z,97686.69
2019-01-04T20:52:26.691Z,97687.46
2019-01-04T20:55:36.376Z,97695.52
2019-01-04T20:58:36.013Z,97700.31
2019-01-04T21:01:45.148Z,97693.88
2019-01-04T21:04:54.014Z,97688.70
2019-01-04T21:08:03.927Z,97700.01
2019-01-04T21:11:12.353Z,97690.08
2019-01-04T21:14:20.960Z,97683.20
2019-01-04T21:17:22.422Z,97677.33
2019-01-04T21:20:31.071Z,97664.94
2019-01-04T21:23:35.368Z,97686.07
2019-01-04T21:26:44.051Z,97687.12
2019-01-04T21:29:40.209Z,97676.66
2019-01-04T21:39:10.861Z,97669.24
2019-01-04T21:42:19.487Z,97660.35
2019-01-04T21:45:28.953Z,97663.57
2019-01-04T21:49:06.461Z,97667.33
2019-01-04T21:55:29.982Z,97669.07
2019-01-04T21:58:20.434Z,97670.65
2019-01-04T22:01:22.548Z,97668.06
2019-01-04T22:07:31.901Z,97675.38
2019-01-04T22:22:27.351Z,97670.72
2019-01-04T22:25:38.141Z,97667.23
2019-01-04T22:28:46.359Z,97671.22
2019-01-04T22:31:36.412Z,97675.69
2019-01-04T22:38:07.203Z,97672.97
2019-01-04T22:41:15.824Z,97666.49
2019-01-04T22:44:20.079Z,97674.67
2019-01-04T22:47:30.342Z,97672.20
2019-01-04T22:50:35.122Z,97681.52
2019-01-04T22:53:44.023Z,97683.53
2019-01-04T22:56:49.170Z,97689.58
2019-01-04T22:59:58.095Z,97655.66
2019-01-04T23:03:05.383Z,97683.30
2019-01-04T23:09:50.983Z,97669.14
2019-01-04T23:13:00.640Z,97663.53
2019-01-04T23:16:06.421Z,97668.41
2019-01-04T23:19:16.137Z,97671.55
2019-01-04T23:23:08.190Z,97679.58
2019-01-04T23:33:05.596Z,97665.81
2019-01-04T23:36:33.661Z,97659.91
2019-01-04T23:39:42.697Z,97660.17
2019-01-04T23:42:47.656Z,97654.91
2019-01-04T23:45:56.942Z,97655.42
2019-01-04T23:49:06.000Z,97654.37
2019-01-04T23:52:16.868Z,97656.42
2019-01-04T23:55:26.578Z,97656.80
2019-01-04T23:58:35.246Z,97655.52
